createdAt,value
2017-04-30T00:00:04.000Z,31.1
2017-04-30T00:20:03.000Z,31.1
2017-04-30T00:40:03.000Z,31.1
2017-04-30T00:50:03.000Z,31.2
2017-04-30T01:00:05.000Z,31.3
2017-04-30T01:20:03.000Z,31.4
2017-04-30T01:40:03.000Z,31.7
2017-04-30T01:50:03.000Z,31.6
2017-04-30T02:00:03.000Z,31.2
2017-04-30T02:20:03.000Z,32
2017-04-30T02:40:03.000Z,32
2017-04-30T02:50:03.000Z,32
2017-04-30T03:00:03.000Z,32.3
2017-04-30T03:20:03.000Z,32.7
2017-04-30T03:40:07.000Z,32.9
2017-04-30T03:50:03.000Z,32.8
2017-04-30T04:00:03.000Z,32.6
2017-04-30T04:20:04.000Z,32.5
2017-04-30T04:40:04.000Z,32.6
2017-04-30T04:50:04.000Z,32.4
2017-04-30T05:00:04.000Z,32.6
2017-04-30T05:20:04.000Z,32
2017-04-30T05:40:04.000Z,31.8
2017-04-30T05:50:04.000Z,33
2017-04-30T06:00:04.000Z,31.6
2017-04-30T06:20:04.000Z,31.1
2017-04-30T06:40:04.000Z,31.2
2017-04-30T06:50:04.000Z,31.3
2017-04-30T07:00:04.000Z,31.4
2017-04-30T07:20:04.000Z,31.8
2017-04-30T07:40:04.000Z,32
2017-04-30T07:50:04.000Z,32.2
2017-04-30T08:00:04.000Z,31.9
2017-04-30T08:20:04.000Z,32.5
2017-04-30T08:40:04.000Z,32.5
2017-04-30T08:50:04.000Z,32.5
2017-04-30T09:00:04.000Z,33.6
2017-04-30T09:10:04.000Z,33.9
2017-04-30T09:20:04.000Z,38.3
2017-04-30T09:40:04.000Z,40.9
2017-04-30T10:00:04.000Z,40.7
2017-04-30T10:10:04.000Z,40.2
2017-04-30T10:20:04.000Z,41.2
2017-04-30T10:40:04.000Z,43.4
2017-04-30T11:00:04.000Z,44.5
2017-04-30T11:10:04.000Z,44.5
2017-04-30T11:20:05.000Z,44.5
2017-04-30T11:40:05.000Z,44.6
2017-04-30T12:00:06.000Z,44.9
2017-04-30T12:10:05.000Z,44.9
2017-04-30T12:20:05.000Z,45
2017-04-30T12:40:05.000Z,45
2017-04-30T13:00:05.000Z,45
2017-04-30T13:10:05.000Z,44.7
2017-04-30T13:20:05.000Z,45.1
2017-04-30T13:40:05.000Z,45.1
2017-04-30T14:00:05.000Z,45.6
2017-04-30T14:10:05.000Z,45.4
2017-04-30T14:20:05.000Z,45.4
2017-04-30T14:40:05.000Z,45.6
2017-04-30T15:00:05.000Z,45.7
2017-04-30T15:10:05.000Z,45.7
2017-04-30T15:20:05.000Z,46
2017-04-30T15:40:05.000Z,44.3
2017-04-30T16:00:05.000Z,45.4
2017-04-30T16:10:05.000Z,45.6
2017-04-30T16:20:05.000Z,45.7
2017-04-30T16:40:05.000Z,45.6
2017-04-30T17:10:05.000Z,45.5
2017-04-30T17:20:06.000Z,45.9
2017-04-30T17:40:06.000Z,46.6
2017-04-30T18:00:05.000Z,45
2017-04-30T18:10:06.000Z,45.4
2017-04-30T18:20:06.000Z,45.7
2017-04-30T18:40:06.000Z,45.8
2017-04-30T19:00:06.000Z,46.5
2017-04-30T19:10:06.000Z,46.1
2017-04-30T19:20:06.000Z,45.9
2017-04-30T19:40:06.000Z,45.6
2017-04-30T20:00:06.000Z,45.9
2017-04-30T20:20:06.000Z,46.1
2017-04-30T20:30:06.000Z,45.9
2017-04-30T20:40:06.000Z,46.2
2017-04-30T21:00:06.000Z,46.2
2017-04-30T21:20:06.000Z,45.8
2017-04-30T21:30:07.000Z,46
2017-04-30T21:40:06.000Z,46.3
2017-04-30T22:00:06.000Z,46.4
2017-04-30T22:20:06.000Z,46.3
2017-04-30T22:30:06.000Z,46.1
2017-04-30T22:40:06.000Z,46
2017-04-30T23:00:06.000Z,46.2
2017-04-30T23:20:06.000Z,46.6
2017-04-30T23:30:06.000Z,46.6
2017-04-30T23:40:06.000Z,46.8
